Terminal Aerodrome Forecast
Issued by NWS Buffalo, NY

Home | Current Version | Previous Version | Text Only | Print | Product List | Glossary On
Versions: 1 2 3 4 5 6 7 8 9 10 11 12 13 14 15 16 17 18 19 20 21 22 23 24 25 26 27 28
997
FTUS41 KBUF 072321
TAFART
TAF
KART 072321Z 0800/0824 07005KT P6SM BKN200
     FM080700 09005KT P6SM BKN070
     FM081000 10005KT P6SM BKN120
     FM081400 10007KT P6SM BKN060
     FM081700 08008KT P6SM BKN110
     FM081900 07009KT P6SM BKN070=

USA.gov is the U.S. government's official web portal to all federal, state and local government web resources and services.